sensor_id;sensor_type;location;lat;lon;timestamp;P1;durP1;ratioP1;P2;durP2;ratioP2
55483;SDS011;41345;51.704;5.146;2023-07-22T00:01:20;56.63;;;52.63;;
55483;SDS011;41345;51.704;5.146;2023-07-22T00:06:20;61.13;;;57.30;;
55483;SDS011;41345;51.704;5.146;2023-07-22T00:11:21;84.57;;;79.70;;
55483;SDS011;41345;51.704;5.146;2023-07-22T00:16:21;62.05;;;57.58;;
55483;SDS011;41345;51.704;5.146;2023-07-22T00:21:21;73.78;;;69.07;;
55483;SDS011;41345;51.704;5.146;2023-07-22T00:26:21;93.00;;;87.93;;
55483;SDS011;41345;51.704;5.146;2023-07-22T00:31:22;80.50;;;75.57;;
55483;SDS011;41345;51.704;5.146;2023-07-22T00:36:22;96.85;;;91.47;;
55483;SDS011;41345;51.704;5.146;2023-07-22T00:41:22;93.63;;;88.47;;
55483;SDS011;41345;51.704;5.146;2023-07-22T00:46:22;100.63;;;94.88;;
55483;SDS011;41345;51.704;5.146;2023-07-22T00:51:23;109.30;;;103.55;;
55483;SDS011;41345;51.704;5.146;2023-07-22T00:56:24;97.72;;;92.25;;
55483;SDS011;41345;51.704;5.146;2023-07-22T01:01:24;127.63;;;121.00;;
55483;SDS011;41345;51.704;5.146;2023-07-22T01:06:24;127.95;;;121.43;;
55483;SDS011;41345;51.704;5.146;2023-07-22T01:11:25;135.95;;;128.80;;
55483;SDS011;41345;51.704;5.146;2023-07-22T01:16:26;154.23;;;146.32;;
55483;SDS011;41345;51.704;5.146;2023-07-22T01:21:26;180.13;;;171.27;;
55483;SDS011;41345;51.704;5.146;2023-07-22T01:26:27;189.90;;;181.20;;
55483;SDS011;41345;51.704;5.146;2023-07-22T01:31:27;223.70;;;213.57;;
55483;SDS011;41345;51.704;5.146;2023-07-22T01:36:27;235.73;;;225.05;;
55483;SDS011;41345;51.704;5.146;2023-07-22T01:41:28;230.90;;;220.63;;
55483;SDS011;41345;51.704;5.146;2023-07-22T01:46:28;259.33;;;247.85;;
55483;SDS011;41345;51.704;5.146;2023-07-22T01:51:28;250.27;;;239.10;;
55483;SDS011;41345;51.704;5.146;2023-07-22T01:56:29;256.50;;;245.00;;
55483;SDS011;41345;51.704;5.146;2023-07-22T02:01:29;274.67;;;262.90;;
55483;SDS011;41345;51.704;5.146;2023-07-22T02:06:29;307.73;;;294.33;;
55483;SDS011;41345;51.704;5.146;2023-07-22T02:11:30;327.45;;;313.38;;
55483;SDS011;41345;51.704;5.146;2023-07-22T02:16:30;337.80;;;323.20;;
55483;SDS011;41345;51.704;5.146;2023-07-22T02:21:31;336.02;;;321.58;;
55483;SDS011;41345;51.704;5.146;2023-07-22T02:26:31;355.13;;;339.73;;
55483;SDS011;41345;51.704;5.146;2023-07-22T02:31:31;384.23;;;367.58;;
55483;SDS011;41345;51.704;5.146;2023-07-22T02:36:31;383.45;;;366.10;;
55483;SDS011;41345;51.704;5.146;2023-07-22T02:41:32;397.90;;;380.17;;
55483;SDS011;41345;51.704;5.146;2023-07-22T02:46:32;336.20;;;321.73;;
55483;SDS011;41345;51.704;5.146;2023-07-22T02:51:32;383.90;;;367.00;;
55483;SDS011;41345;51.704;5.146;2023-07-22T02:56:32;402.70;;;385.10;;
55483;SDS011;41345;51.704;5.146;2023-07-22T03:01:33;378.50;;;361.02;;
55483;SDS011;41345;51.704;5.146;2023-07-22T03:06:33;385.25;;;368.13;;
55483;SDS011;41345;51.704;5.146;2023-07-22T03:11:33;425.30;;;406.27;;
55483;SDS011;41345;51.704;5.146;2023-07-22T03:16:34;412.52;;;394.00;;
55483;SDS011;41345;51.704;5.146;2023-07-22T03:21:34;405.17;;;386.92;;
55483;SDS011;41345;51.704;5.146;2023-07-22T03:26:35;425.73;;;406.58;;
55483;SDS011;41345;51.704;5.146;2023-07-22T03:31:35;436.05;;;416.35;;
55483;SDS011;41345;51.704;5.146;2023-07-22T03:36:36;436.50;;;417.08;;
55483;SDS011;41345;51.704;5.146;2023-07-22T03:41:36;457.98;;;436.65;;
55483;SDS011;41345;51.704;5.146;2023-07-22T03:46:36;448.42;;;428.27;;
55483;SDS011;41345;51.704;5.146;2023-07-22T03:51:36;439.42;;;419.33;;
55483;SDS011;41345;51.704;5.146;2023-07-22T03:56:38;460.87;;;439.73;;
55483;SDS011;41345;51.704;5.146;2023-07-22T04:01:38;468.48;;;446.15;;
55483;SDS011;41345;51.704;5.146;2023-07-22T04:06:39;470.77;;;448.13;;
55483;SDS011;41345;51.704;5.146;2023-07-22T04:11:39;461.75;;;440.40;;
55483;SDS011;41345;51.704;5.146;2023-07-22T04:16:39;445.23;;;424.77;;
55483;SDS011;41345;51.704;5.146;2023-07-22T04:21:39;459.53;;;437.10;;
55483;SDS011;41345;51.704;5.146;2023-07-22T04:26:42;462.92;;;440.98;;
55483;SDS011;41345;51.704;5.146;2023-07-22T04:31:42;442.50;;;421.92;;
55483;SDS011;41345;51.704;5.146;2023-07-22T04:36:42;518.42;;;493.77;;
55483;SDS011;41345;51.704;5.146;2023-07-22T04:41:43;478.30;;;456.13;;
55483;SDS011;41345;51.704;5.146;2023-07-22T04:46:43;500.90;;;477.50;;
55483;SDS011;41345;51.704;5.146;2023-07-22T04:51:45;493.83;;;470.58;;
55483;SDS011;41345;51.704;5.146;2023-07-22T04:56:45;470.13;;;449.08;;
55483;SDS011;41345;51.704;5.146;2023-07-22T05:01:46;490.17;;;467.93;;
55483;SDS011;41345;51.704;5.146;2023-07-22T05:06:46;483.20;;;460.75;;
55483;SDS011;41345;51.704;5.146;2023-07-22T05:11:46;466.05;;;445.13;;
55483;SDS011;41345;51.704;5.146;2023-07-22T05:16:47;461.77;;;439.95;;
55483;SDS011;41345;51.704;5.146;2023-07-22T05:21:47;415.20;;;396.37;;
55483;SDS011;41345;51.704;5.146;2023-07-22T05:26:48;389.48;;;372.23;;
55483;SDS011;41345;51.704;5.146;2023-07-22T05:31:49;420.47;;;401.60;;
55483;SDS011;41345;51.704;5.146;2023-07-22T05:36:49;399.58;;;381.50;;
55483;SDS011;41345;51.704;5.146;2023-07-22T05:41:49;380.05;;;363.52;;
55483;SDS011;41345;51.704;5.146;2023-07-22T05:46:50;414.17;;;395.63;;
55483;SDS011;41345;51.704;5.146;2023-07-22T05:51:50;397.70;;;379.95;;
55483;SDS011;41345;51.704;5.146;2023-07-22T05:56:50;399.67;;;382.25;;
55483;SDS011;41345;51.704;5.146;2023-07-22T06:01:52;382.70;;;365.40;;
55483;SDS011;41345;51.704;5.146;2023-07-22T06:06:52;410.33;;;391.98;;
55483;SDS011;41345;51.704;5.146;2023-07-22T06:11:52;388.10;;;370.08;;
55483;SDS011;41345;51.704;5.146;2023-07-22T06:16:52;360.87;;;344.20;;
55483;SDS011;41345;51.704;5.146;2023-07-22T06:21:53;373.95;;;357.20;;
55483;SDS011;41345;51.704;5.146;2023-07-22T06:26:54;402.58;;;383.33;;
55483;SDS011;41345;51.704;5.146;2023-07-22T06:31:54;396.35;;;378.15;;
55483;SDS011;41345;51.704;5.146;2023-07-22T06:36:55;410.02;;;389.92;;
55483;SDS011;41345;51.704;5.146;2023-07-22T06:41:55;391.08;;;372.33;;
55483;SDS011;41345;51.704;5.146;2023-07-22T06:46:55;378.13;;;360.37;;
55483;SDS011;41345;51.704;5.146;2023-07-22T06:51:55;399.50;;;380.95;;
55483;SDS011;41345;51.704;5.146;2023-07-22T06:56:56;340.13;;;324.85;;
55483;SDS011;41345;51.704;5.146;2023-07-22T07:01:56;325.73;;;310.90;;
55483;SDS011;41345;51.704;5.146;2023-07-22T07:06:57;340.90;;;325.23;;
55483;SDS011;41345;51.704;5.146;2023-07-22T07:11:57;344.30;;;328.80;;
55483;SDS011;41345;51.704;5.146;2023-07-22T07:16:57;298.43;;;285.33;;
55483;SDS011;41345;51.704;5.146;2023-07-22T07:21:58;296.92;;;283.50;;
55483;SDS011;41345;51.704;5.146;2023-07-22T07:26:58;277.13;;;264.70;;
55483;SDS011;41345;51.704;5.146;2023-07-22T07:31:58;297.50;;;284.70;;
55483;SDS011;41345;51.704;5.146;2023-07-22T07:36:59;253.35;;;242.23;;
55483;SDS011;41345;51.704;5.146;2023-07-22T07:41:59;222.57;;;212.65;;
55483;SDS011;41345;51.704;5.146;2023-07-22T07:46:59;171.80;;;163.50;;
55483;SDS011;41345;51.704;5.146;2023-07-22T07:52:00;192.75;;;183.93;;
55483;SDS011;41345;51.704;5.146;2023-07-22T07:57:00;142.85;;;135.32;;
55483;SDS011;41345;51.704;5.146;2023-07-22T08:02:00;156.97;;;149.63;;
55483;SDS011;41345;51.704;5.146;2023-07-22T08:07:00;122.25;;;116.47;;
55483;SDS011;41345;51.704;5.146;2023-07-22T08:12:01;102.60;;;97.30;;
55483;SDS011;41345;51.704;5.146;2023-07-22T08:17:01;86.15;;;81.32;;
55483;SDS011;41345;51.704;5.146;2023-07-22T08:22:02;108.70;;;102.53;;
55483;SDS011;41345;51.704;5.146;2023-07-22T08:27:02;165.98;;;158.02;;
55483;SDS011;41345;51.704;5.146;2023-07-22T08:32:02;71.57;;;67.00;;
55483;SDS011;41345;51.704;5.146;2023-07-22T08:37:03;77.72;;;73.40;;
55483;SDS011;41345;51.704;5.146;2023-07-22T08:42:04;27.50;;;25.23;;
55483;SDS011;41345;51.704;5.146;2023-07-22T08:47:04;23.13;;;20.95;;
55483;SDS011;41345;51.704;5.146;2023-07-22T08:52:07;22.47;;;20.20;;
55483;SDS011;41345;51.704;5.146;2023-07-22T08:57:08;16.40;;;13.70;;
55483;SDS011;41345;51.704;5.146;2023-07-22T09:02:10;16.45;;;11.88;;
55483;SDS011;41345;51.704;5.146;2023-07-22T09:07:12;15.68;;;13.70;;
55483;SDS011;41345;51.704;5.146;2023-07-22T09:12:13;15.00;;;7.47;;
55483;SDS011;41345;51.704;5.146;2023-07-22T09:17:14;22.00;;;14.95;;
55483;SDS011;41345;51.704;5.146;2023-07-22T09:22:14;14.33;;;6.93;;
55483;SDS011;41345;51.704;5.146;2023-07-22T09:27:14;11.07;;;5.85;;
55483;SDS011;41345;51.704;5.146;2023-07-22T09:32:15;11.35;;;4.72;;
55483;SDS011;41345;51.704;5.146;2023-07-22T09:37:15;9.98;;;4.40;;
55483;SDS011;41345;51.704;5.146;2023-07-22T09:42:23;12.15;;;4.70;;
55483;SDS011;41345;51.704;5.146;2023-07-22T09:47:23;11.73;;;4.85;;
55483;SDS011;41345;51.704;5.146;2023-07-22T09:52:24;9.98;;;4.63;;
55483;SDS011;41345;51.704;5.146;2023-07-22T09:57:24;11.90;;;4.40;;
55483;SDS011;41345;51.704;5.146;2023-07-22T10:02:25;10.70;;;4.72;;
55483;SDS011;41345;51.704;5.146;2023-07-22T10:07:26;11.13;;;4.75;;
55483;SDS011;41345;51.704;5.146;2023-07-22T10:12:26;11.65;;;4.72;;
55483;SDS011;41345;51.704;5.146;2023-07-22T10:17:27;11.10;;;4.70;;
55483;SDS011;41345;51.704;5.146;2023-07-22T10:22:28;10.20;;;4.25;;
55483;SDS011;41345;51.704;5.146;2023-07-22T10:27:28;12.98;;;5.03;;
55483;SDS011;41345;51.704;5.146;2023-07-22T10:32:31;9.47;;;4.27;;
55483;SDS011;41345;51.704;5.146;2023-07-22T10:37:32;8.52;;;3.28;;
55483;SDS011;41345;51.704;5.146;2023-07-22T10:42:33;8.18;;;3.55;;
55483;SDS011;41345;51.704;5.146;2023-07-22T10:47:34;10.37;;;3.37;;
55483;SDS011;41345;51.704;5.146;2023-07-22T10:52:38;7.72;;;3.22;;
55483;SDS011;41345;51.704;5.146;2023-07-22T10:57:49;10.40;;;3.08;;
55483;SDS011;41345;51.704;5.146;2023-07-22T11:03:09;7.38;;;3.25;;
55483;SDS011;41345;51.704;5.146;2023-07-22T11:08:09;8.07;;;3.10;;
55483;SDS011;41345;51.704;5.146;2023-07-22T11:13:10;9.60;;;3.40;;
55483;SDS011;41345;51.704;5.146;2023-07-22T11:18:10;7.87;;;2.70;;
55483;SDS011;41345;51.704;5.146;2023-07-22T11:23:10;12.07;;;2.60;;
55483;SDS011;41345;51.704;5.146;2023-07-22T11:28:13;6.22;;;2.67;;
55483;SDS011;41345;51.704;5.146;2023-07-22T11:33:14;7.18;;;2.88;;
55483;SDS011;41345;51.704;5.146;2023-07-22T11:38:14;8.32;;;2.70;;
55483;SDS011;41345;51.704;5.146;2023-07-22T11:43:14;8.60;;;2.45;;
55483;SDS011;41345;51.704;5.146;2023-07-22T11:48:14;6.77;;;2.50;;
55483;SDS011;41345;51.704;5.146;2023-07-22T11:53:15;7.05;;;2.60;;
55483;SDS011;41345;51.704;5.146;2023-07-22T11:58:23;5.43;;;2.53;;
55483;SDS011;41345;51.704;5.146;2023-07-22T12:03:23;7.80;;;2.92;;
55483;SDS011;41345;51.704;5.146;2023-07-22T12:08:24;6.20;;;2.63;;
55483;SDS011;41345;51.704;5.146;2023-07-22T12:13:24;7.40;;;2.85;;
55483;SDS011;41345;51.704;5.146;2023-07-22T12:18:24;8.48;;;3.00;;
55483;SDS011;41345;51.704;5.146;2023-07-22T12:23:25;6.00;;;2.83;;
55483;SDS011;41345;51.704;5.146;2023-07-22T12:28:25;9.50;;;3.42;;
55483;SDS011;41345;51.704;5.146;2023-07-22T12:33:26;7.47;;;2.75;;
55483;SDS011;41345;51.704;5.146;2023-07-22T12:38:26;6.15;;;2.80;;
55483;SDS011;41345;51.704;5.146;2023-07-22T12:43:26;6.37;;;2.70;;
55483;SDS011;41345;51.704;5.146;2023-07-22T12:48:27;6.63;;;2.80;;
55483;SDS011;41345;51.704;5.146;2023-07-22T12:53:27;9.10;;;2.90;;
55483;SDS011;41345;51.704;5.146;2023-07-22T12:58:28;8.98;;;2.80;;
55483;SDS011;41345;51.704;5.146;2023-07-22T13:03:28;8.70;;;3.17;;
55483;SDS011;41345;51.704;5.146;2023-07-22T13:08:28;7.65;;;3.13;;
55483;SDS011;41345;51.704;5.146;2023-07-22T13:13:29;9.45;;;3.92;;
55483;SDS011;41345;51.704;5.146;2023-07-22T13:18:29;8.32;;;3.45;;
55483;SDS011;41345;51.704;5.146;2023-07-22T13:23:30;8.48;;;3.75;;
55483;SDS011;41345;51.704;5.146;2023-07-22T13:28:30;7.30;;;3.60;;
55483;SDS011;41345;51.704;5.146;2023-07-22T13:33:31;10.07;;;2.90;;
55483;SDS011;41345;51.704;5.146;2023-07-22T13:38:31;7.53;;;3.20;;
55483;SDS011;41345;51.704;5.146;2023-07-22T13:43:32;9.07;;;3.20;;
55483;SDS011;41345;51.704;5.146;2023-07-22T13:48:32;17.73;;;3.25;;
55483;SDS011;41345;51.704;5.146;2023-07-22T13:53:32;9.50;;;3.85;;
55483;SDS011;41345;51.704;5.146;2023-07-22T13:58:33;16.52;;;14.57;;
55483;SDS011;41345;51.704;5.146;2023-07-22T14:03:33;8.43;;;3.70;;
55483;SDS011;41345;51.704;5.146;2023-07-22T14:08:34;10.20;;;3.17;;
55483;SDS011;41345;51.704;5.146;2023-07-22T14:13:34;8.45;;;3.25;;
55483;SDS011;41345;51.704;5.146;2023-07-22T14:18:34;10.80;;;4.27;;
55483;SDS011;41345;51.704;5.146;2023-07-22T14:23:34;11.75;;;3.63;;
55483;SDS011;41345;51.704;5.146;2023-07-22T14:28:35;6.72;;;2.90;;
55483;SDS011;41345;51.704;5.146;2023-07-22T14:33:35;9.93;;;3.33;;
55483;SDS011;41345;51.704;5.146;2023-07-22T14:38:35;8.07;;;3.05;;
55483;SDS011;41345;51.704;5.146;2023-07-22T14:43:36;8.02;;;2.92;;
55483;SDS011;41345;51.704;5.146;2023-07-22T14:48:36;16.73;;;2.60;;
55483;SDS011;41345;51.704;5.146;2023-07-22T14:53:36;11.02;;;3.20;;
55483;SDS011;41345;51.704;5.146;2023-07-22T14:58:37;7.32;;;2.70;;
55483;SDS011;41345;51.704;5.146;2023-07-22T15:03:37;11.17;;;3.70;;
55483;SDS011;41345;51.704;5.146;2023-07-22T15:08:38;13.80;;;7.20;;
55483;SDS011;41345;51.704;5.146;2023-07-22T15:13:39;10.70;;;5.80;;
55483;SDS011;41345;51.704;5.146;2023-07-22T15:18:40;11.40;;;3.27;;
55483;SDS011;41345;51.704;5.146;2023-07-22T15:23:40;7.68;;;3.30;;
55483;SDS011;41345;51.704;5.146;2023-07-22T15:28:40;11.40;;;4.45;;
55483;SDS011;41345;51.704;5.146;2023-07-22T15:33:41;6.53;;;2.97;;
55483;SDS011;41345;51.704;5.146;2023-07-22T15:38:41;7.82;;;2.45;;
55483;SDS011;41345;51.704;5.146;2023-07-22T15:43:41;11.02;;;3.55;;
55483;SDS011;41345;51.704;5.146;2023-07-22T15:48:42;8.03;;;2.80;;
55483;SDS011;41345;51.704;5.146;2023-07-22T15:53:42;10.15;;;2.78;;
55483;SDS011;41345;51.704;5.146;2023-07-22T15:58:42;13.68;;;2.90;;
55483;SDS011;41345;51.704;5.146;2023-07-22T16:03:42;7.40;;;2.72;;
55483;SDS011;41345;51.704;5.146;2023-07-22T16:08:43;8.02;;;2.40;;
55483;SDS011;41345;51.704;5.146;2023-07-22T16:13:43;9.07;;;2.60;;
55483;SDS011;41345;51.704;5.146;2023-07-22T16:18:43;6.87;;;2.50;;
55483;SDS011;41345;51.704;5.146;2023-07-22T16:23:43;7.38;;;2.35;;
55483;SDS011;41345;51.704;5.146;2023-07-22T16:28:44;9.18;;;2.30;;
55483;SDS011;41345;51.704;5.146;2023-07-22T16:33:44;8.13;;;2.30;;
55483;SDS011;41345;51.704;5.146;2023-07-22T16:38:44;6.90;;;2.38;;
55483;SDS011;41345;51.704;5.146;2023-07-22T16:43:45;6.05;;;1.90;;
55483;SDS011;41345;51.704;5.146;2023-07-22T16:48:45;7.23;;;2.63;;
55483;SDS011;41345;51.704;5.146;2023-07-22T16:53:45;5.95;;;2.38;;
55483;SDS011;41345;51.704;5.146;2023-07-22T16:58:46;8.38;;;2.20;;
55483;SDS011;41345;51.704;5.146;2023-07-22T17:03:46;5.22;;;1.92;;
55483;SDS011;41345;51.704;5.146;2023-07-22T17:08:47;7.90;;;2.03;;
55483;SDS011;41345;51.704;5.146;2023-07-22T17:13:47;5.68;;;1.77;;
55483;SDS011;41345;51.704;5.146;2023-07-22T17:18:49;5.15;;;1.95;;
55483;SDS011;41345;51.704;5.146;2023-07-22T17:23:50;5.70;;;1.90;;
55483;SDS011;41345;51.704;5.146;2023-07-22T17:28:51;12.48;;;2.80;;
55483;SDS011;41345;51.704;5.146;2023-07-22T17:33:51;8.32;;;2.10;;
55483;SDS011;41345;51.704;5.146;2023-07-22T17:38:51;10.52;;;2.70;;
55483;SDS011;41345;51.704;5.146;2023-07-22T17:43:51;6.10;;;2.55;;
55483;SDS011;41345;51.704;5.146;2023-07-22T17:48:52;6.80;;;2.37;;
55483;SDS011;41345;51.704;5.146;2023-07-22T17:53:52;10.60;;;2.97;;
55483;SDS011;41345;51.704;5.146;2023-07-22T17:58:52;8.45;;;2.72;;
55483;SDS011;41345;51.704;5.146;2023-07-22T18:03:53;10.38;;;3.40;;
55483;SDS011;41345;51.704;5.146;2023-07-22T18:08:53;6.97;;;2.92;;
55483;SDS011;41345;51.704;5.146;2023-07-22T18:13:53;8.40;;;3.13;;
55483;SDS011;41345;51.704;5.146;2023-07-22T18:18:54;9.40;;;2.90;;
55483;SDS011;41345;51.704;5.146;2023-07-22T18:23:54;9.43;;;3.42;;
55483;SDS011;41345;51.704;5.146;2023-07-22T18:28:56;11.10;;;3.17;;
55483;SDS011;41345;51.704;5.146;2023-07-22T18:33:56;8.90;;;3.17;;
55483;SDS011;41345;51.704;5.146;2023-07-22T18:38:56;8.00;;;3.73;;
55483;SDS011;41345;51.704;5.146;2023-07-22T18:43:57;8.43;;;3.35;;
55483;SDS011;41345;51.704;5.146;2023-07-22T18:48:57;7.63;;;3.73;;
55483;SDS011;41345;51.704;5.146;2023-07-22T18:54:00;10.45;;;5.38;;
55483;SDS011;41345;51.704;5.146;2023-07-22T18:59:00;8.87;;;5.83;;
55483;SDS011;41345;51.704;5.146;2023-07-22T19:04:01;8.70;;;7.32;;
55483;SDS011;41345;51.704;5.146;2023-07-22T19:09:01;13.37;;;12.07;;
55483;SDS011;41345;51.704;5.146;2023-07-22T19:14:01;21.13;;;19.73;;
55483;SDS011;41345;51.704;5.146;2023-07-22T19:19:02;23.77;;;21.98;;
55483;SDS011;41345;51.704;5.146;2023-07-22T19:24:02;38.13;;;36.08;;
55483;SDS011;41345;51.704;5.146;2023-07-22T19:29:02;45.87;;;43.30;;
55483;SDS011;41345;51.704;5.146;2023-07-22T19:34:03;62.37;;;59.10;;
55483;SDS011;41345;51.704;5.146;2023-07-22T19:39:04;67.13;;;63.85;;
55483;SDS011;41345;51.704;5.146;2023-07-22T19:44:04;130.02;;;124.55;;
55483;SDS011;41345;51.704;5.146;2023-07-22T19:49:04;174.13;;;167.02;;
55483;SDS011;41345;51.704;5.146;2023-07-22T19:54:05;153.63;;;147.50;;
55483;SDS011;41345;51.704;5.146;2023-07-22T19:59:05;189.27;;;181.73;;
55483;SDS011;41345;51.704;5.146;2023-07-22T20:04:06;143.43;;;137.43;;
55483;SDS011;41345;51.704;5.146;2023-07-22T20:09:06;211.38;;;203.32;;
55483;SDS011;41345;51.704;5.146;2023-07-22T20:14:06;417.60;;;400.97;;
55483;SDS011;41345;51.704;5.146;2023-07-22T20:19:07;424.20;;;407.20;;
55483;SDS011;41345;51.704;5.146;2023-07-22T20:24:07;446.45;;;428.50;;
55483;SDS011;41345;51.704;5.146;2023-07-22T20:29:07;413.35;;;397.17;;
55483;SDS011;41345;51.704;5.146;2023-07-22T20:34:08;433.90;;;416.63;;
55483;SDS011;41345;51.704;5.146;2023-07-22T20:39:08;453.55;;;434.85;;
55483;SDS011;41345;51.704;5.146;2023-07-22T20:44:08;469.80;;;450.17;;
55483;SDS011;41345;51.704;5.146;2023-07-22T20:49:09;486.75;;;466.63;;
55483;SDS011;41345;51.704;5.146;2023-07-22T20:54:09;490.17;;;470.27;;
55483;SDS011;41345;51.704;5.146;2023-07-22T20:59:09;515.22;;;491.67;;
55483;SDS011;41345;51.704;5.146;2023-07-22T21:04:09;535.53;;;511.23;;
55483;SDS011;41345;51.704;5.146;2023-07-22T21:09:10;524.83;;;501.27;;
55483;SDS011;41345;51.704;5.146;2023-07-22T21:14:10;521.10;;;498.58;;
55483;SDS011;41345;51.704;5.146;2023-07-22T21:19:10;515.60;;;493.17;;
55483;SDS011;41345;51.704;5.146;2023-07-22T21:24:11;519.75;;;495.17;;
55483;SDS011;41345;51.704;5.146;2023-07-22T21:29:11;530.75;;;506.92;;
55483;SDS011;41345;51.704;5.146;2023-07-22T21:34:11;545.70;;;518.20;;
55483;SDS011;41345;51.704;5.146;2023-07-22T21:39:12;544.60;;;517.65;;
55483;SDS011;41345;51.704;5.146;2023-07-22T21:44:12;530.45;;;504.27;;
55483;SDS011;41345;51.704;5.146;2023-07-22T21:49:13;541.80;;;513.10;;
55483;SDS011;41345;51.704;5.146;2023-07-22T21:54:13;554.47;;;524.63;;
55483;SDS011;41345;51.704;5.146;2023-07-22T21:59:13;549.35;;;517.38;;
55483;SDS011;41345;51.704;5.146;2023-07-22T22:04:14;545.78;;;515.72;;
55483;SDS011;41345;51.704;5.146;2023-07-22T22:09:15;544.42;;;513.00;;
55483;SDS011;41345;51.704;5.146;2023-07-22T22:14:15;525.13;;;494.50;;
55483;SDS011;41345;51.704;5.146;2023-07-22T22:19:16;535.70;;;502.02;;
55483;SDS011;41345;51.704;5.146;2023-07-22T22:24:16;525.70;;;492.70;;
55483;SDS011;41345;51.704;5.146;2023-07-22T22:29:16;537.60;;;503.35;;
55483;SDS011;41345;51.704;5.146;2023-07-22T22:34:17;523.60;;;489.17;;
55483;SDS011;41345;51.704;5.146;2023-07-22T22:39:17;520.72;;;485.10;;
55483;SDS011;41345;51.704;5.146;2023-07-22T22:44:17;538.70;;;503.70;;
55483;SDS011;41345;51.704;5.146;2023-07-22T22:49:18;515.00;;;479.83;;
55483;SDS011;41345;51.704;5.146;2023-07-22T22:54:18;529.47;;;493.30;;
55483;SDS011;41345;51.704;5.146;2023-07-22T22:59:18;525.08;;;487.88;;
55483;SDS011;41345;51.704;5.146;2023-07-22T23:04:19;529.73;;;492.23;;
55483;SDS011;41345;51.704;5.146;2023-07-22T23:09:19;522.40;;;483.65;;
55483;SDS011;41345;51.704;5.146;2023-07-22T23:14:19;501.45;;;464.10;;
55483;SDS011;41345;51.704;5.146;2023-07-22T23:19:20;515.50;;;476.40;;
55483;SDS011;41345;51.704;5.146;2023-07-22T23:24:20;508.42;;;470.17;;
55483;SDS011;41345;51.704;5.146;2023-07-22T23:29:20;507.02;;;469.00;;
55483;SDS011;41345;51.704;5.146;2023-07-22T23:34:21;504.02;;;466.00;;
55483;SDS011;41345;51.704;5.146;2023-07-22T23:39:21;501.98;;;463.75;;
55483;SDS011;41345;51.704;5.146;2023-07-22T23:44:21;506.80;;;468.45;;
55483;SDS011;41345;51.704;5.146;2023-07-22T23:49:21;504.00;;;465.57;;
55483;SDS011;41345;51.704;5.146;2023-07-22T23:54:22;508.00;;;469.15;;
55483;SDS011;41345;51.704;5.146;2023-07-22T23:59:23;504.42;;;464.85;;
